createdAt,value
2019-05-20T00:01:57.242Z,2.53
2019-05-20T00:04:24.660Z,2.43
2019-05-20T00:06:51.593Z,2.37
2019-05-20T00:09:18.553Z,2.57
2019-05-20T00:11:45.504Z,2.60
2019-05-20T00:14:12.448Z,2.47
2019-05-20T00:16:39.423Z,2.53
2019-05-20T00:19:06.371Z,2.50
2019-05-20T00:21:33.693Z,2.47
2019-05-20T00:24:00.633Z,2.47
2019-05-20T00:26:27.591Z,2.50
2019-05-20T00:28:54.558Z,2.60
2019-05-20T00:31:21.651Z,1.83
2019-05-20T00:33:48.545Z,2.20
2019-05-20T00:36:15.534Z,2.07
2019-05-20T00:38:42.470Z,2.10
2019-05-20T00:41:09.395Z,2.10
2019-05-20T00:43:36.643Z,2.00
2019-05-20T00:46:03.582Z,2.10
2019-05-20T00:48:30.500Z,1.63
2019-05-20T00:50:57.460Z,1.87
2019-05-20T00:53:24.418Z,2.03
2019-05-20T00:55:51.341Z,2.00
2019-05-20T00:58:18.284Z,1.90
2019-05-20T01:00:45.464Z,2.13
2019-05-20T01:03:12.395Z,1.90
2019-05-20T01:05:40.918Z,1.70
2019-05-20T01:08:07.857Z,2.00
2019-05-20T01:10:34.792Z,2.20
2019-05-20T01:13:01.722Z,2.20
2019-05-20T01:15:28.691Z,2.10
2019-05-20T01:17:55.616Z,2.10
2019-05-20T01:20:22.567Z,1.90
2019-05-20T01:22:49.507Z,2.30
2019-05-20T01:25:16.435Z,1.97
2019-05-20T01:27:43.379Z,2.03
2019-05-20T01:30:10.321Z,1.70
2019-05-20T01:32:37.243Z,1.70
2019-05-20T01:35:04.206Z,1.77
2019-05-20T01:37:31.149Z,1.77
2019-05-20T01:39:58.086Z,1.70
2019-05-20T01:42:25.044Z,1.80
2019-05-20T01:44:51.990Z,1.90
2019-05-20T01:47:18.916Z,1.73
2019-05-20T01:49:45.862Z,1.40
2019-05-20T01:52:12.843Z,1.80
2019-05-20T01:54:39.781Z,1.53
2019-05-20T01:57:06.700Z,1.93
2019-05-20T01:59:33.663Z,1.90
2019-05-20T02:02:00.607Z,1.63
2019-05-20T02:04:27.534Z,1.80
2019-05-20T02:06:55.841Z,1.80
2019-05-20T02:09:22.783Z,1.80
2019-05-20T02:11:49.712Z,1.77
2019-05-20T02:14:17.974Z,1.77
2019-05-20T02:16:44.939Z,1.73
2019-05-20T02:19:11.875Z,1.90
2019-05-20T02:21:38.811Z,1.90
2019-05-20T02:24:05.756Z,1.80
2019-05-20T02:26:32.704Z,1.80
2019-05-20T02:28:59.663Z,2.00
2019-05-20T02:31:26.607Z,2.10
2019-05-20T02:33:53.546Z,1.60
2019-05-20T02:36:20.518Z,1.50
2019-05-20T02:38:47.477Z,1.60
2019-05-20T02:41:14.481Z,1.60
2019-05-20T02:43:41.446Z,1.60
2019-05-20T02:46:08.390Z,1.43
2019-05-20T02:48:35.323Z,1.50
2019-05-20T02:51:02.277Z,1.43
2019-05-20T02:53:29.280Z,1.67
2019-05-20T02:55:56.188Z,1.60
2019-05-20T02:58:23.140Z,1.60
2019-05-20T03:00:50.086Z,1.70
2019-05-20T03:03:17.021Z,1.80
2019-05-20T03:05:44.257Z,1.60
2019-05-20T03:08:11.963Z,1.63
2019-05-20T03:10:38.902Z,1.60
2019-05-20T03:13:06.161Z,1.70
2019-05-20T03:15:33.108Z,1.57
2019-05-20T03:18:00.048Z,1.80
2019-05-20T03:20:27.005Z,1.60
2019-05-20T03:22:53.933Z,1.70
2019-05-20T03:25:20.882Z,1.50
2019-05-20T03:27:47.876Z,1.50
2019-05-20T03:30:14.819Z,1.70
2019-05-20T03:32:41.761Z,1.70
2019-05-20T03:35:08.701Z,2.20
2019-05-20T03:37:35.641Z,2.20
2019-05-20T03:40:03.062Z,2.20
2019-05-20T03:42:30.005Z,2.20
2019-05-20T03:44:56.932Z,2.37
2019-05-20T03:47:23.878Z,2.33
2019-05-20T03:49:50.814Z,2.30
2019-05-20T03:52:17.733Z,3.13
2019-05-20T03:54:44.650Z,2.80
2019-05-20T03:57:11.608Z,2.53
2019-05-20T03:59:38.537Z,2.60
2019-05-20T04:02:05.534Z,2.93
2019-05-20T04:04:32.444Z,2.70
2019-05-20T04:06:59.621Z,3.00
2019-05-20T04:09:26.957Z,2.80
2019-05-20T04:11:53.947Z,2.90
2019-05-20T04:14:20.879Z,3.00
2019-05-20T04:16:50.329Z,3.40
2019-05-20T04:19:17.310Z,2.80
2019-05-20T04:21:44.258Z,2.80
2019-05-20T04:24:11.260Z,2.60
2019-05-20T04:26:38.223Z,2.80
2019-05-20T04:29:05.152Z,3.60
2019-05-20T04:31:32.114Z,2.97
2019-05-20T04:33:59.053Z,3.27
2019-05-20T04:36:25.987Z,3.20
2019-05-20T04:38:56.224Z,3.40
2019-05-20T04:41:23.206Z,3.07
2019-05-20T04:43:50.133Z,3.10
2019-05-20T04:46:17.054Z,3.43
2019-05-20T04:48:43.996Z,3.23
2019-05-20T04:51:10.917Z,3.00
2019-05-20T04:53:37.876Z,3.10
2019-05-20T04:56:04.816Z,3.57
2019-05-20T04:58:31.748Z,3.53
2019-05-20T05:00:58.734Z,3.50
2019-05-20T05:03:25.704Z,3.30
2019-05-20T05:05:52.634Z,3.80
2019-05-20T05:08:19.634Z,3.53
2019-05-20T05:10:46.709Z,3.47
2019-05-20T05:13:13.683Z,3.40
2019-05-20T05:15:40.620Z,3.23
2019-05-20T05:18:07.597Z,3.13
2019-05-20T05:20:34.529Z,3.30
2019-05-20T05:23:01.452Z,3.60
2019-05-20T05:25:28.396Z,4.33
2019-05-20T05:27:55.323Z,23.87
2019-05-20T05:30:22.261Z,5.77
2019-05-20T05:32:49.222Z,5.73
2019-05-20T05:35:16.185Z,7.27
2019-05-20T05:37:43.108Z,10.57
2019-05-20T05:40:10.080Z,10.97
2019-05-20T05:42:37.009Z,6.80
2019-05-20T05:45:04.218Z,7.00
2019-05-20T05:47:31.143Z,7.23
2019-05-20T05:49:58.085Z,7.53
2019-05-20T05:52:25.020Z,7.90
2019-05-20T05:54:51.987Z,8.30
2019-05-20T05:57:18.929Z,8.43
2019-05-20T05:59:45.876Z,10.40
2019-05-20T06:02:12.883Z,11.77
2019-05-20T06:04:39.844Z,9.63
2019-05-20T06:07:06.800Z,9.67
2019-05-20T06:09:33.785Z,9.80
2019-05-20T06:12:00.971Z,9.70
2019-05-20T06:14:27.918Z,10.00
2019-05-20T06:16:54.929Z,9.90
2019-05-20T06:19:21.908Z,9.53
2019-05-20T06:21:48.889Z,9.90
2019-05-20T06:24:15.832Z,10.43
2019-05-20T06:26:42.783Z,10.03
2019-05-20T06:29:09.726Z,10.70
2019-05-20T06:31:36.691Z,9.40
2019-05-20T06:34:03.639Z,10.43
2019-05-20T06:36:30.720Z,10.43
2019-05-20T06:39:03.412Z,10.70
2019-05-20T06:41:30.328Z,10.40
2019-05-20T06:43:57.273Z,10.83
2019-05-20T06:46:24.247Z,10.33
2019-05-20T06:48:51.254Z,9.23
2019-05-20T06:51:18.244Z,9.77
2019-05-20T06:53:45.199Z,9.83
2019-05-20T06:56:12.155Z,9.97
2019-05-20T06:58:39.073Z,9.40
2019-05-20T07:01:06.043Z,10.23
2019-05-20T07:03:33.592Z,10.57
2019-05-20T07:06:00.573Z,10.03
2019-05-20T07:08:27.544Z,9.40
2019-05-20T07:10:54.517Z,9.90
2019-05-20T07:13:22.988Z,10.00
2019-05-20T07:15:49.938Z,9.83
2019-05-20T07:18:16.882Z,9.27
2019-05-20T07:20:43.830Z,9.50
2019-05-20T07:23:10.775Z,9.23
2019-05-20T07:25:37.685Z,8.83
2019-05-20T07:28:04.613Z,8.70
2019-05-20T07:30:31.568Z,8.77
2019-05-20T07:32:58.540Z,9.57
2019-05-20T07:35:30.825Z,10.00
2019-05-20T07:37:52.472Z,9.80
2019-05-20T07:40:28.513Z,10.90
2019-05-20T07:42:55.479Z,10.50
2019-05-20T07:45:22.447Z,10.60
2019-05-20T07:47:49.454Z,11.37
2019-05-20T07:50:16.390Z,10.83
2019-05-20T07:52:43.306Z,11.43
2019-05-20T07:55:10.285Z,11.13
2019-05-20T07:57:37.229Z,10.77
2019-05-20T08:00:04.304Z,10.67
2019-05-20T08:02:31.235Z,10.40
2019-05-20T08:04:58.216Z,9.80
2019-05-20T08:07:35.589Z,9.67
2019-05-20T08:09:52.086Z,10.07
2019-05-20T08:12:19.032Z,10.33
2019-05-20T08:14:48.282Z,10.07
2019-05-20T08:17:15.200Z,10.00
2019-05-20T08:19:42.148Z,10.53
2019-05-20T08:22:09.095Z,11.10
2019-05-20T08:24:36.036Z,10.10
2019-05-20T08:27:02.978Z,11.47
2019-05-20T08:29:29.970Z,11.20
2019-05-20T08:31:56.883Z,10.67
2019-05-20T08:34:23.869Z,10.93
2019-05-20T08:36:50.817Z,10.93
2019-05-20T08:39:17.754Z,11.40
2019-05-20T08:41:44.696Z,10.60
2019-05-20T08:44:11.633Z,10.23
2019-05-20T08:46:38.586Z,10.80
2019-05-20T08:49:10.446Z,11.33
2019-05-20T08:51:32.486Z,10.93
2019-05-20T08:53:59.406Z,11.47
2019-05-20T08:56:26.402Z,11.00
2019-05-20T08:58:53.340Z,11.13
2019-05-20T09:01:20.256Z,10.70
2019-05-20T09:03:47.263Z,11.67
2019-05-20T09:06:14.207Z,10.67
2019-05-20T09:08:41.119Z,11.40
2019-05-20T09:11:08.156Z,10.73
2019-05-20T09:13:35.119Z,11.03
2019-05-20T09:16:03.663Z,11.13
2019-05-20T09:18:30.619Z,11.73
2019-05-20T09:20:57.559Z,10.20
2019-05-20T09:23:24.597Z,11.33
2019-05-20T09:25:51.507Z,11.60
2019-05-20T09:28:18.398Z,11.60
2019-05-20T09:30:45.539Z,10.93
2019-05-20T09:33:12.789Z,11.57
2019-05-20T09:35:40.229Z,12.53
2019-05-20T09:38:19.423Z,11.90
2019-05-20T09:40:37.485Z,11.70
2019-05-20T09:43:05.640Z,12.60
2019-05-20T09:45:32.698Z,12.40
2019-05-20T09:48:00.354Z,12.50
2019-05-20T09:50:28.891Z,13.17
2019-05-20T09:52:55.563Z,13.20
2019-05-20T09:55:22.536Z,13.00
2019-05-20T09:57:49.485Z,12.70
2019-05-20T10:00:16.910Z,12.30
2019-05-20T10:02:44.239Z,13.03
2019-05-20T10:05:11.873Z,12.10
2019-05-20T10:07:40.925Z,13.07
2019-05-20T10:10:07.913Z,12.70
2019-05-20T10:12:46.071Z,13.03
2019-05-20T10:15:02.174Z,12.87
2019-05-20T10:17:30.730Z,13.10
2019-05-20T10:19:57.600Z,12.97
2019-05-20T10:22:24.544Z,14.20
2019-05-20T10:24:51.492Z,13.67
2019-05-20T10:27:18.429Z,14.03
2019-05-20T10:29:45.438Z,13.60
2019-05-20T10:32:12.346Z,14.00
2019-05-20T10:34:39.260Z,13.93
2019-05-20T10:37:06.216Z,13.13
2019-05-20T10:39:33.152Z,14.17
2019-05-20T10:42:00.079Z,14.07
2019-05-20T10:44:27.017Z,15.60
2019-05-20T10:46:54.059Z,14.03
2019-05-20T10:49:20.937Z,14.87
2019-05-20T10:51:47.980Z,14.27
2019-05-20T10:54:14.908Z,15.60
2019-05-20T10:56:41.835Z,14.93
2019-05-20T10:59:11.933Z,15.07
2019-05-20T11:01:35.870Z,16.13
2019-05-20T11:04:02.821Z,16.00
2019-05-20T11:06:29.884Z,16.60
2019-05-20T11:09:11.511Z,18.20
2019-05-20T11:11:23.965Z,17.03
2019-05-20T11:13:50.892Z,18.33
2019-05-20T11:16:17.862Z,18.03
2019-05-20T11:18:46.147Z,23.20
2019-05-20T11:21:13.081Z,21.93
2019-05-20T11:23:40.021Z,22.60
2019-05-20T11:26:06.949Z,22.17
2019-05-20T11:28:34.105Z,22.00
2019-05-20T11:31:01.074Z,22.47
2019-05-20T11:33:28.026Z,23.73
2019-05-20T11:35:54.957Z,21.67
2019-05-20T11:38:21.892Z,22.93
2019-05-20T11:40:48.818Z,22.07
2019-05-20T11:43:15.724Z,20.77
2019-05-20T11:45:42.673Z,22.03
2019-05-20T11:48:09.588Z,21.20
2019-05-20T11:50:36.556Z,20.80
2019-05-20T11:53:03.670Z,22.10
2019-05-20T11:55:30.702Z,22.87
2019-05-20T11:58:12.845Z,21.00
2019-05-20T12:00:24.565Z,21.83
2019-05-20T12:02:51.482Z,21.37
2019-05-20T12:05:18.416Z,22.07
2019-05-20T12:07:45.372Z,22.73
2019-05-20T12:10:12.295Z,23.13
2019-05-20T12:12:39.241Z,23.47
2019-05-20T12:15:07.228Z,22.27
2019-05-20T12:17:33.218Z,22.83
2019-05-20T12:20:01.431Z,22.63
2019-05-20T12:22:28.286Z,22.57
2019-05-20T12:24:55.207Z,23.50
2019-05-20T12:27:22.113Z,25.87
2019-05-20T12:29:49.053Z,24.77
2019-05-20T12:32:16.000Z,24.43
2019-05-20T12:34:42.902Z,25.13
2019-05-20T12:37:09.862Z,27.47
2019-05-20T12:39:36.891Z,26.53
2019-05-20T12:42:03.770Z,25.37
2019-05-20T12:44:30.716Z,27.40
2019-05-20T12:46:57.654Z,27.33
2019-05-20T12:49:24.740Z,25.73
2019-05-20T12:51:51.579Z,26.50
2019-05-20T12:54:18.506Z,33.13
2019-05-20T12:56:45.528Z,27.40
2019-05-20T12:59:12.449Z,24.90
2019-05-20T13:01:39.365Z,25.03
2019-05-20T13:04:06.463Z,24.33
2019-05-20T13:06:33.339Z,23.93
2019-05-20T13:09:00.267Z,23.37
2019-05-20T13:11:27.282Z,21.77
2019-05-20T13:13:54.187Z,21.07
2019-05-20T13:16:21.148Z,22.07
2019-05-20T13:18:56.031Z,22.63
2019-05-20T13:21:16.453Z,23.57
2019-05-20T13:23:43.384Z,22.30
2019-05-20T13:26:10.306Z,23.07
2019-05-20T13:28:37.280Z,22.60
2019-05-20T13:31:04.207Z,21.10
2019-05-20T13:33:31.313Z,22.27
2019-05-20T13:35:58.260Z,22.83
2019-05-20T13:38:25.207Z,25.87
2019-05-20T13:40:52.150Z,25.83
2019-05-20T13:43:19.100Z,23.40
2019-05-20T13:45:48.190Z,23.83
2019-05-20T13:48:12.949Z,23.03
2019-05-20T13:50:39.884Z,21.90
2019-05-20T13:53:06.811Z,22.80
2019-05-20T13:55:33.744Z,24.50
2019-05-20T13:58:00.697Z,23.87
2019-05-20T14:00:27.617Z,23.83
2019-05-20T14:02:54.594Z,25.07
2019-05-20T14:05:21.796Z,26.10
2019-05-20T14:07:48.729Z,25.60
2019-05-20T14:10:15.655Z,26.60
2019-05-20T14:12:42.601Z,25.67
2019-05-20T14:15:09.552Z,27.10
2019-05-20T14:17:36.523Z,25.43
2019-05-20T14:20:03.932Z,25.87
2019-05-20T14:22:32.189Z,26.40
2019-05-20T14:24:59.164Z,26.37
2019-05-20T14:27:26.078Z,25.27
2019-05-20T14:29:53.003Z,25.77
2019-05-20T14:32:19.928Z,23.57
2019-05-20T14:34:46.877Z,26.43
2019-05-20T14:37:13.859Z,26.37
2019-05-20T14:39:40.852Z,24.60
2019-05-20T14:42:07.791Z,24.20
2019-05-20T14:44:34.721Z,23.87
2019-05-20T14:47:01.680Z,25.30
2019-05-20T14:49:28.630Z,23.80
2019-05-20T14:51:55.558Z,24.63
2019-05-20T14:54:22.508Z,24.67
2019-05-20T14:56:49.425Z,24.33
2019-05-20T14:59:16.397Z,24.67
2019-05-20T15:01:43.325Z,26.20
2019-05-20T15:04:10.269Z,24.70
2019-05-20T15:06:37.201Z,24.43
2019-05-20T15:09:05.237Z,26.17
2019-05-20T15:11:38.091Z,25.57
2019-05-20T15:14:00.255Z,25.57
2019-05-20T15:16:26.087Z,39.33
2019-05-20T15:18:53.008Z,24.13
2019-05-20T15:21:19.962Z,23.67
2019-05-20T15:23:47.096Z,24.50
2019-05-20T15:26:14.087Z,22.77
2019-05-20T15:28:41.037Z,23.10
2019-05-20T15:31:07.972Z,21.93
2019-05-20T15:33:35.968Z,21.60
2019-05-20T15:36:02.934Z,21.53
2019-05-20T15:38:29.853Z,21.13
2019-05-20T15:40:56.793Z,21.77
2019-05-20T15:57:27.858Z,17.37
2019-05-20T15:59:54.830Z,16.83
2019-05-20T16:02:21.780Z,17.00
2019-05-20T16:04:48.788Z,17.10
2019-05-20T16:07:15.732Z,16.40
2019-05-20T16:09:42.704Z,17.23
2019-05-20T16:12:09.732Z,16.87
2019-05-20T16:14:36.746Z,18.43
2019-05-20T16:17:03.743Z,28.27
2019-05-20T16:19:30.687Z,16.47
2019-05-20T16:21:57.627Z,16.50
2019-05-20T16:24:26.785Z,15.43
2019-05-20T16:26:53.811Z,16.27
2019-05-20T16:29:20.771Z,15.40
2019-05-20T16:31:47.701Z,16.20
2019-05-20T16:34:14.671Z,17.17
2019-05-20T16:36:41.591Z,15.63
2019-05-20T16:39:08.531Z,17.50
2019-05-20T16:41:35.514Z,18.00
2019-05-20T16:44:02.796Z,18.17
2019-05-20T16:46:29.744Z,23.43
2019-05-20T16:48:56.805Z,21.73
2019-05-20T16:51:23.762Z,20.50
2019-05-20T16:53:50.706Z,20.20
2019-05-20T16:56:17.678Z,19.57
2019-05-20T16:58:44.600Z,21.43
2019-05-20T17:01:11.541Z,21.37
2019-05-20T17:03:38.500Z,22.37
2019-05-20T17:06:05.413Z,23.53
2019-05-20T17:08:32.378Z,27.10
2019-05-20T17:10:59.365Z,24.93
2019-05-20T17:13:26.347Z,24.90
2019-05-20T17:15:54.331Z,25.57
2019-05-20T17:18:21.671Z,26.13
2019-05-20T17:20:48.603Z,25.43
2019-05-20T17:23:15.565Z,27.60
2019-05-20T17:25:43.737Z,26.20
2019-05-20T17:28:10.681Z,27.53
2019-05-20T17:30:45.528Z,28.17
2019-05-20T17:33:04.602Z,28.13
2019-05-20T17:35:31.761Z,28.33
2019-05-20T17:37:59.435Z,29.20
2019-05-20T17:40:26.681Z,29.13
2019-05-20T17:42:53.636Z,29.70
2019-05-20T17:45:20.610Z,28.07
2019-05-20T17:47:47.582Z,30.43
2019-05-20T17:50:14.513Z,30.63
2019-05-20T17:52:41.703Z,30.43
2019-05-20T17:55:08.649Z,37.07
2019-05-20T17:57:35.848Z,31.50
2019-05-20T18:00:03.285Z,29.53
2019-05-20T18:02:30.682Z,29.00
2019-05-20T18:04:57.641Z,30.00
2019-05-20T18:07:24.581Z,29.30
2019-05-20T18:09:51.551Z,31.23
2019-05-20T18:12:18.557Z,32.57
2019-05-20T18:14:48.126Z,30.10
2019-05-20T18:17:15.077Z,31.40
2019-05-20T18:19:42.265Z,30.93
2019-05-20T18:22:09.200Z,31.37
2019-05-20T18:24:36.176Z,31.47
2019-05-20T18:27:03.435Z,31.30
2019-05-20T18:29:30.400Z,32.97
2019-05-20T18:31:57.355Z,31.97
2019-05-20T18:34:24.327Z,31.83
2019-05-20T18:36:51.302Z,32.17
2019-05-20T18:39:18.313Z,31.40
2019-05-20T18:41:45.261Z,33.57
2019-05-20T18:44:13.399Z,32.33
2019-05-20T18:46:39.193Z,35.37
2019-05-20T18:49:06.184Z,35.30
2019-05-20T18:51:33.169Z,34.43
2019-05-20T18:54:00.156Z,35.57
2019-05-20T18:56:27.106Z,35.87
2019-05-20T18:58:54.114Z,35.83
2019-05-20T19:01:21.102Z,36.60
2019-05-20T19:03:48.052Z,38.00
2019-05-20T19:06:15.066Z,38.43
2019-05-20T19:08:42.257Z,38.47
2019-05-20T19:11:09.209Z,38.67
2019-05-20T19:13:36.137Z,38.93
2019-05-20T19:16:03.089Z,41.23
2019-05-20T19:18:30.030Z,40.50
2019-05-20T19:20:57.035Z,37.43
2019-05-20T19:23:24.113Z,40.10
2019-05-20T19:25:51.084Z,40.00
2019-05-20T19:28:18.422Z,41.33
2019-05-20T19:30:45.405Z,40.67
2019-05-20T19:33:12.429Z,40.40
2019-05-20T19:35:39.665Z,40.87
2019-05-20T19:38:06.693Z,40.50
2019-05-20T19:40:33.677Z,40.00
2019-05-20T19:43:00.819Z,41.87
2019-05-20T19:45:27.878Z,40.60
2019-05-20T19:47:54.914Z,41.00
2019-05-20T19:50:21.941Z,41.63
2019-05-20T19:52:49.019Z,43.30
2019-05-20T19:55:18.850Z,40.63
2019-05-20T19:57:43.686Z,42.63
2019-05-20T20:00:10.897Z,43.20
2019-05-20T20:02:37.847Z,44.30
2019-05-20T20:05:05.010Z,43.73
2019-05-20T20:07:32.016Z,43.67
2019-05-20T20:09:58.999Z,42.53
2019-05-20T20:12:26.192Z,42.67
2019-05-20T20:14:53.185Z,40.27
2019-05-20T20:17:20.160Z,41.47
2019-05-20T20:19:47.105Z,42.73
2019-05-20T20:22:14.121Z,42.70
2019-05-20T20:24:41.165Z,40.77
2019-05-20T20:27:08.346Z,42.63
2019-05-20T20:29:35.673Z,45.90
2019-05-20T20:32:02.648Z,46.03
2019-05-20T20:34:30.713Z,44.10
2019-05-20T20:36:56.585Z,43.83
2019-05-20T20:39:23.561Z,48.47
2019-05-20T20:41:50.510Z,45.77
2019-05-20T20:44:17.494Z,44.37
2019-05-20T20:46:44.436Z,44.63
2019-05-20T20:49:14.278Z,43.47
2019-05-20T20:51:38.331Z,42.27
2019-05-20T20:54:05.291Z,43.53
2019-05-20T20:56:34.187Z,42.67
2019-05-20T20:58:59.219Z,41.07
2019-05-20T21:01:26.181Z,39.50
2019-05-20T21:03:53.146Z,39.47
2019-05-20T21:06:20.101Z,36.47
2019-05-20T21:08:47.045Z,36.47
2019-05-20T21:11:13.994Z,35.73
2019-05-20T21:13:40.950Z,35.60
2019-05-20T21:16:07.881Z,35.03
2019-05-20T21:18:34.843Z,34.93
2019-05-20T21:21:01.811Z,35.80
2019-05-20T21:23:28.769Z,35.93
2019-05-20T21:25:55.737Z,37.07
2019-05-20T21:28:22.714Z,36.83
2019-05-20T21:30:49.833Z,36.57
2019-05-20T21:33:16.793Z,35.07
2019-05-20T21:35:45.500Z,36.83
2019-05-20T21:38:10.744Z,32.63
2019-05-20T21:40:37.729Z,34.57
2019-05-20T21:43:04.702Z,34.47
2019-05-20T21:45:31.745Z,33.60
2019-05-20T21:47:58.736Z,32.33
2019-05-20T21:50:25.663Z,34.00
2019-05-20T21:52:52.663Z,35.37
2019-05-20T21:55:19.624Z,35.37
2019-05-20T21:57:46.569Z,33.50
2019-05-20T22:00:15.923Z,34.90
2019-05-20T22:02:42.878Z,34.33
2019-05-20T22:05:09.837Z,33.77
2019-05-20T22:07:36.871Z,33.27
2019-05-20T22:10:03.973Z,35.07
2019-05-20T22:12:30.917Z,34.97
2019-05-20T22:14:57.864Z,34.20
2019-05-20T22:17:24.800Z,35.17
2019-05-20T22:19:51.775Z,36.53
2019-05-20T22:22:25.980Z,35.77
2019-05-20T22:24:52.962Z,35.03
2019-05-20T22:27:19.902Z,34.77
2019-05-20T22:29:46.843Z,33.63
2019-05-20T22:32:13.993Z,33.70
2019-05-20T22:34:52.696Z,32.60
2019-05-20T22:37:07.877Z,32.50
2019-05-20T22:39:34.848Z,32.33
2019-05-20T22:42:01.810Z,32.13
2019-05-20T22:44:28.764Z,31.20
2019-05-20T22:46:55.761Z,31.17
2019-05-20T22:49:22.718Z,32.20
2019-05-20T22:51:49.658Z,31.13
2019-05-20T22:54:16.636Z,30.90
2019-05-20T22:56:43.573Z,30.30
2019-05-20T22:59:10.536Z,30.60
2019-05-20T23:01:37.575Z,30.77
2019-05-20T23:04:04.521Z,31.23
2019-05-20T23:20:44.487Z,33.53
2019-05-20T23:26:01.825Z,33.27
2019-05-20T23:28:28.780Z,32.80
2019-05-20T23:30:55.761Z,33.47
2019-05-20T23:33:22.934Z,32.93
2019-05-20T23:35:49.907Z,35.03
2019-05-20T23:38:16.848Z,35.17
2019-05-20T23:40:43.821Z,33.43
2019-05-20T23:43:10.763Z,33.53
2019-05-20T23:45:37.709Z,33.47
2019-05-20T23:48:04.696Z,33.43
2019-05-20T23:50:31.663Z,33.00
2019-05-20T23:52:58.616Z,34.20
2019-05-20T23:55:25.575Z,33.20
2019-05-20T23:57:52.561Z,33.57
